Plain City, Ohio
Current Conditions -  °F | °C
As of 12:13 PM on Sunday 23 Nov 2014 (Local Time) from KMRT Reporting Station
Clear Clear  
Wind Chill: 56°   Ceiling: Unl
Heat Index: 56°   Visibility: 10mi
Dew Point: 37°   Wind: 13mph
Humidity: 47%   Direction: 190°S
Pressure: 29.88"   Gusts: NA
Location:  40.11°N, 83.27°W
Report Text: KMRT 231713Z AUTO 19011KT 10SM CLR 14/03 A2988 RMK AO2 T01350025
Loading
Personal Weather Stations






























Interactive Weather Map New forecast layout! Learn more

10-Day Weather Forecast

Advertisements
Track Severe Weather on mobile